Time;durP1;ratioP1;P1;durP2;ratioP2;P2;SDS_P1;SDS_P2;PMS_P1;PMS_P2;Temp;Humidity;BMP_temperature;BMP_pressure;BME280_temperature;BME280_humidity;BME280_pressure;Samples;Min_cycle;Max_cycle;Signal;HPM_P1;HPM_P2
2021/09/17 05:09:51;;;;;;;13.40;6.87;;;;;;;15.52;100.00;98420.77;4064297;77;10000105;-85
2021/09/17 05:15:53;;;;;;;9.48;6.10;;;;;;;15.59;100.00;98430.31;4412685;78;21560;-85
2021/09/17 05:21:55;;;;;;;10.95;5.25;;;;;;;15.65;100.00;98434.14;4430090;78;21014;-85
2021/09/17 05:27:56;;;;;;;14.78;6.08;;;;;;;15.76;100.00;98437.48;4444017;77;21336;-85
2021/09/17 05:33:58;;;;;;;8.75;5.00;;;;;;;15.92;100.00;98439.55;4435506;78;21057;-84
2021/09/17 05:39:59;;;;;;;9.85;5.55;;;;;;;15.93;100.00;98444.65;4327674;80;21729;-84
2021/09/17 05:46:00;;;;;;;10.80;6.10;;;;;;;16.01;100.00;98452.98;4379898;79;22623;-85
2021/09/17 05:52:02;;;;;;;9.80;5.12;;;;;;;16.05;100.00;98449.56;4360064;79;21602;-86
2021/09/17 05:58:03;;;;;;;10.35;6.08;;;;;;;16.03;100.00;98451.96;4356469;79;22376;-86
2021/09/17 06:04:05;;;;;;;9.45;6.37;;;;;;;15.88;100.00;98463.70;4358141;79;21121;-85
2021/09/17 06:10:07;;;;;;;11.97;7.30;;;;;;;15.95;100.00;98474.00;4421145;77;21068;-84
2021/09/17 06:16:09;;;;;;;7.75;5.83;;;;;;;15.84;100.00;98489.19;4438607;77;21581;-86
2021/09/17 06:22:10;;;;;;;12.40;5.47;;;;;;;15.71;100.00;98484.11;4427714;79;21101;-87
2021/09/17 06:28:11;;;;;;;10.15;6.62;;;;;;;15.69;100.00;98494.19;4280382;80;21075;-85
2021/09/17 06:34:12;;;;;;;9.55;6.10;;;;;;;15.66;100.00;98484.76;4345268;80;21109;-85
2021/09/17 06:40:15;;;;;;;8.53;5.00;;;;;;;15.65;100.00;98491.48;4428849;78;21011;-88
2021/09/17 06:46:16;;;;;;;9.78;5.00;;;;;;;15.64;100.00;98504.33;4424409;78;21113;-86
2021/09/17 06:52:17;;;;;;;8.40;4.33;;;;;;;15.55;100.00;98506.84;4345652;80;21054;-86
2021/09/17 06:58:18;;;;;;;6.40;2.22;;;;;;;15.30;100.00;98520.98;4448955;77;21041;-86
2021/09/17 07:04:19;;;;;;;5.33;1.22;;;;;;;15.18;100.00;98529.84;4379379;79;21015;-85
2021/09/17 07:10:21;;;;;;;2.42;1.10;;;;;;;15.03;100.00;98534.00;4358185;80;21066;-87
2021/09/17 07:16:22;;;;;;;4.22;1.25;;;;;;;14.96;100.00;98550.63;4428337;78;20983;-87
2021/09/17 07:22:23;;;;;;;3.80;1.35;;;;;;;14.95;100.00;98560.69;4422032;79;21015;-86
2021/09/17 07:28:25;;;;;;;7.50;2.25;;;;;;;14.97;100.00;98565.95;4376108;79;21109;-85
2021/09/17 07:34:26;;;;;;;5.20;2.20;;;;;;;14.99;100.00;98564.95;4383280;79;21580;-85
2021/09/17 07:40:29;;;;;;;6.40;1.98;;;;;;;15.01;100.00;98573.59;4361010;79;21647;-84
2021/09/17 07:46:31;;;;;;;5.00;2.12;;;;;;;15.08;100.00;98581.75;4428250;77;21051;-86
2021/09/17 07:52:32;;;;;;;6.00;1.75;;;;;;;15.04;100.00;98577.48;4453671;77;22107;-85
2021/09/17 07:58:33;;;;;;;4.75;2.05;;;;;;;15.07;100.00;98584.34;4455212;77;21599;-86
2021/09/17 08:04:38;;;;;;;5.45;2.15;;;;;;;15.08;100.00;98590.64;4453498;77;21121;-86
2021/09/17 08:10:39;;;;;;;4.20;1.80;;;;;;;15.11;100.00;98591.95;4352122;80;21588;-86
2021/09/17 08:16:40;;;;;;;2.50;1.67;;;;;;;15.16;100.00;98597.63;4397306;78;21099;-85
2021/09/17 08:22:41;;;;;;;4.97;2.25;;;;;;;15.19;100.00;98592.05;4448283;77;21134;-86
2021/09/17 08:28:43;;;;;;;4.58;2.02;;;;;;;15.17;100.00;98599.97;4443457;77;21060;-85
2021/09/17 08:34:45;;;;;;;3.95;1.90;;;;;;;15.18;100.00;98602.90;4446797;77;21044;-86
2021/09/17 08:40:48;;;;;;;6.65;2.10;;;;;;;15.21;100.00;98601.28;4448067;77;21024;-86
2021/09/17 08:46:49;;;;;;;11.35;3.30;;;;;;;15.22;100.00;98602.86;4438137;78;21543;-86
2021/09/17 08:52:51;;;;;;;7.62;4.03;;;;;;;15.14;100.00;98602.15;4433298;77;22421;-86
2021/09/17 08:58:52;;;;;;;6.45;4.10;;;;;;;15.15;100.00;98605.11;4452314;77;21543;-86
2021/09/17 09:05:03;;;;;;;7.42;3.90;;;;;;;15.05;100.00;98600.50;4454035;77;21071;-86
2021/09/17 09:11:21;;;;;;;5.72;2.95;;;;;;;15.01;100.00;98604.50;4452231;77;22231;-87
2021/09/17 09:17:35;;;;;;;8.83;4.30;;;;;;;15.06;100.00;98602.67;4444779;77;21122;-86
2021/09/17 09:23:38;;;;;;;5.42;3.62;;;;;;;15.11;100.00;98607.73;4460639;77;21004;-86
2021/09/17 09:29:45;;;;;;;7.78;3.80;;;;;;;15.10;100.00;98607.53;4461883;77;21036;-87
2021/09/17 09:35:48;;;;;;;8.00;3.05;;;;;;;15.05;100.00;98602.50;4443140;77;21110;-86
2021/09/17 09:41:52;;;;;;;5.10;2.58;;;;;;;15.08;100.00;98612.08;4440998;77;21048;-85
2021/09/17 09:47:56;;;;;;;4.20;2.58;;;;;;;15.13;100.00;98601.98;4402680;78;21024;-85
2021/09/17 09:54:00;;;;;;;5.47;2.62;;;;;;;15.19;100.00;98598.94;4461360;77;21124;-85
2021/09/17 10:00:09;;;;;;;3.05;2.65;;;;;;;15.15;100.00;98605.11;4441196;77;22096;-86
2021/09/17 10:06:17;;;;;;;7.62;3.70;;;;;;;15.14;100.00;98600.77;4433264;77;21028;-87
2021/09/17 10:12:19;;;;;;;6.53;2.90;;;;;;;15.11;100.00;98604.36;4444834;77;21566;-85
2021/09/17 10:18:20;;;;;;;6.87;2.85;;;;;;;15.07;100.00;98602.26;4442630;77;21100;-86
2021/09/17 10:24:33;;;;;;;5.33;2.72;;;;;;;15.10;100.00;98602.02;4432434;78;21021;-86
2021/09/17 10:30:41;;;;;;;5.92;2.50;;;;;;;15.14;100.00;98598.02;4432574;77;21646;-87
2021/09/17 10:36:43;;;;;;;5.17;2.62;;;;;;;15.18;100.00;98595.22;4447969;78;21064;-86
2021/09/17 10:43:12;;;;;;;4.70;3.10;;;;;;;15.23;100.00;98592.80;4449772;77;21038;-86
2021/09/17 10:49:14;;;;;;;4.05;3.37;;;;;;;15.30;100.00;98593.30;4444440;77;21556;-84
2021/09/17 10:55:56;;;;;;;8.48;4.50;;;;;;;15.36;100.00;98586.88;4428328;78;21034;-85
2021/09/17 11:02:10;;;;;;;10.00;3.92;;;;;;;15.43;100.00;98590.16;4447011;77;21561;-86
2021/09/17 11:08:14;;;;;;;7.47;3.87;;;;;;;15.53;100.00;98576.20;4372621;79;21007;-86
2021/09/17 11:14:18;;;;;;;;;;;;;;;15.51;100.00;98580.00;4363244;79;21573;-85
2021/09/17 11:20:26;;;;;;;9.43;8.05;;;;;;;15.50;100.00;98583.17;4383336;79;20133;-85
2021/09/17 11:26:31;;;;;;;10.25;8.05;;;;;;;15.41;100.00;98583.69;4368092;78;21500;-85
2021/09/17 11:32:33;;;;;;;11.57;8.43;;;;;;;15.51;100.00;98572.31;4369754;78;21059;-85
2021/09/17 11:38:34;;;;;;;8.88;5.53;;;;;;;15.60;100.00;98568.42;4431996;78;20999;-86
2021/09/17 11:44:53;;;;;;;6.53;5.22;;;;;;;15.55;100.00;98560.02;4428158;77;21570;-86
2021/09/17 11:50:56;;;;;;;9.45;5.50;;;;;;;15.60;100.00;98559.55;4442235;77;21021;-86
2021/09/17 11:57:05;;;;;;;10.10;6.70;;;;;;;15.57;100.00;98560.98;4435662;77;21505;-85
2021/09/17 12:03:09;;;;;;;9.25;7.30;;;;;;;15.61;100.00;98565.24;4432602;77;21027;-86
2021/09/17 12:09:10;;;;;;;12.10;8.10;;;;;;;15.58;100.00;98554.28;4335901;79;21038;-87
2021/09/17 12:15:30;;;;;;;14.95;9.50;;;;;;;15.71;100.00;98559.38;4418106;78;22249;-86
2021/09/17 12:21:32;;;;;;;11.43;7.15;;;;;;;15.77;100.00;98561.84;4425899;78;21091;-85
2021/09/17 12:27:35;;;;;;;12.93;9.20;;;;;;;15.78;100.00;98561.24;4428678;78;21068;-85
2021/09/17 12:33:37;;;;;;;12.95;9.20;;;;;;;15.88;100.00;98556.16;4329913;80;20952;-86
2021/09/17 12:39:38;;;;;;;14.35;10.48;;;;;;;15.90;100.00;98554.53;4437709;78;21549;-86
2021/09/17 12:45:43;;;;;;;14.53;10.48;;;;;;;15.95;100.00;98556.81;4449431;77;21928;-86
2021/09/17 12:51:59;;;;;;;16.85;12.95;;;;;;;16.00;100.00;98556.34;4427233;77;21046;-86
2021/09/17 12:58:14;;;;;;;16.95;12.37;;;;;;;15.96;100.00;98554.22;4420874;78;22227;-86
2021/09/17 13:04:16;;;;;;;12.85;10.55;;;;;;;15.89;100.00;98549.42;4437983;77;21077;-86
2021/09/17 13:10:17;;;;;;;20.62;12.33;;;;;;;15.96;100.00;98550.70;4440999;77;21082;-86
2021/09/17 13:16:19;;;;;;;16.80;13.15;;;;;;;15.97;100.00;98542.59;4466494;77;21592;-87
2021/09/17 13:22:20;;;;;;;18.62;13.88;;;;;;;15.97;100.00;98548.11;4448900;77;21042;-86
2021/09/17 13:28:22;;;;;;;16.25;11.70;;;;;;;15.98;100.00;98545.52;4450288;77;21075;-87
2021/09/17 13:34:23;;;;;;;15.30;12.68;;;;;;;16.09;100.00;98546.11;4434152;77;22241;-86
2021/09/17 13:40:27;;;;;;;14.50;12.75;;;;;;;16.20;100.00;98541.97;4450483;77;21040;-87
2021/09/17 13:46:28;;;;;;;18.50;12.50;;;;;;;16.22;100.00;98549.23;4430305;77;21541;-86
2021/09/17 13:52:29;;;;;;;19.17;13.68;;;;;;;16.15;100.00;98534.75;4428045;77;21018;-86
2021/09/17 13:58:31;;;;;;;11.83;9.50;;;;;;;16.10;100.00;98527.73;4423213;78;21033;-86
2021/09/17 14:04:33;;;;;;;10.55;7.72;;;;;;;16.04;100.00;98529.43;4438517;77;21523;-86
2021/09/17 14:10:34;;;;;;;12.50;8.38;;;;;;;15.98;100.00;98523.43;4438456;77;21060;-86
2021/09/17 14:16:36;;;;;;;14.93;9.00;;;;;;;15.91;100.00;98518.81;4444588;77;21079;-87
2021/09/17 14:22:41;;;;;;;11.20;9.53;;;;;;;15.89;100.00;98510.20;4423049;77;21003;-85
2021/09/17 14:28:42;;;;;;;13.50;8.63;;;;;;;15.84;100.00;98512.64;4443190;77;22396;-86
2021/09/17 14:34:43;;;;;;;11.45;9.45;;;;;;;15.81;100.00;98506.00;4438234;77;21045;-86
2021/09/17 14:40:45;;;;;;;12.70;9.78;;;;;;;15.64;100.00;98509.84;4454919;77;21648;-85
2021/09/17 14:46:46;;;;;;;12.13;10.45;;;;;;;15.66;100.00;98512.35;4441751;77;21071;-87
2021/09/17 14:52:47;;;;;;;12.98;10.88;;;;;;;15.62;100.00;98515.78;4437628;77;21059;-86
2021/09/17 14:58:48;;;;;;;17.70;11.70;;;;;;;15.68;100.00;98507.20;4429369;77;21487;-86
2021/09/17 15:04:50;;;;;;;13.80;11.12;;;;;;;15.55;100.00;98518.64;4438195;77;21077;-85
2021/09/17 15:10:53;;;;;;;15.65;12.10;;;;;;;15.54;100.00;98515.72;4448241;77;21036;-87
2021/09/17 15:16:54;;;;;;;14.07;11.55;;;;;;;15.35;100.00;98506.73;4430344;77;21098;-84
2021/09/17 15:22:56;;;;;;;14.43;11.68;;;;;;;15.25;100.00;98509.04;4431082;78;21554;-85
2021/09/17 15:28:58;;;;;;;15.32;13.53;;;;;;;15.09;100.00;98508.91;4449752;77;21048;-86
2021/09/17 15:34:59;;;;;;;16.00;12.35;;;;;;;15.24;100.00;98513.59;4443181;77;21075;-85
2021/09/17 15:41:01;;;;;;;17.27;13.08;;;;;;;15.24;100.00;98513.59;4461843;77;21015;-86
2021/09/17 15:47:03;;;;;;;16.40;12.37;;;;;;;15.18;100.00;98505.61;4439544;77;21525;-86
2021/09/17 15:53:04;;;;;;;17.37;12.93;;;;;;;15.18;100.00;98507.78;4441896;77;22601;-85
2021/09/17 15:59:06;;;;;;;16.50;13.13;;;;;;;15.30;100.00;98501.67;4428356;77;21512;-85
2021/09/17 16:05:08;;;;;;;16.77;12.78;;;;;;;15.29;100.00;98511.16;4457387;77;21089;-87
2021/09/17 16:11:09;;;;;;;15.75;12.53;;;;;;;15.37;100.00;98518.72;4443595;77;21135;-85
2021/09/17 16:17:10;;;;;;;16.70;12.43;;;;;;;15.35;100.00;98515.59;4453699;77;21107;-85
2021/09/17 16:23:12;;;;;;;15.93;12.78;;;;;;;15.31;100.00;98520.39;4457674;77;21137;-87
2021/09/17 16:29:14;;;;;;;16.02;11.88;;;;;;;15.42;100.00;98518.28;4440329;77;21078;-88
2021/09/17 16:35:16;;;;;;;18.45;13.28;;;;;;;15.51;100.00;98517.14;4455084;77;21064;-86
2021/09/17 16:41:19;;;;;;;15.75;12.37;;;;;;;15.56;100.00;98523.57;4437872;77;21064;-86
2021/09/17 16:47:21;;;;;;;18.87;13.62;;;;;;;15.56;100.00;98531.84;4459104;77;21139;-86
2021/09/17 16:53:23;;;;;;;19.98;15.50;;;;;;;15.52;100.00;98531.89;4430738;77;21177;-85
2021/09/17 16:59:25;;;;;;;18.50;15.55;;;;;;;15.43;100.00;98529.48;4434428;77;21173;-86
2021/09/17 17:05:27;;;;;;;27.25;16.82;;;;;;;15.42;100.00;98530.10;4437086;77;21802;-87
2021/09/17 17:11:28;;;;;;;23.52;18.20;;;;;;;15.43;100.00;98526.72;4455382;77;21037;-85
2021/09/17 17:17:30;;;;;;;22.75;17.92;;;;;;;15.43;100.00;98529.48;4440685;77;21602;-87
2021/09/17 17:23:33;;;;;;;19.75;15.90;;;;;;;15.38;100.00;98535.47;4429912;78;21083;-86
2021/09/17 17:29:36;;;;;;;27.32;15.10;;;;;;;15.36;100.00;98541.37;4421552;77;21077;-86
2021/09/17 17:35:38;;;;;;;21.48;14.68;;;;;;;15.40;100.00;98542.73;4429869;78;21027;-86
2021/09/17 17:41:39;;;;;;;19.77;12.55;;;;;;;15.41;100.00;98547.07;4432884;77;21543;-87
2021/09/17 17:47:42;;;;;;;16.30;11.25;;;;;;;15.39;100.00;98550.22;4444369;77;21085;-87
2021/09/17 17:53:43;;;;;;;14.80;10.48;;;;;;;15.38;100.00;98554.19;4455792;77;21016;-86
2021/09/17 17:59:46;;;;;;;10.30;9.03;;;;;;;15.39;100.00;98552.97;4453361;77;21060;-86
2021/09/17 18:05:53;;;;;;;21.55;11.20;;;;;;;15.33;100.00;98563.51;4435726;77;21632;-86
2021/09/17 18:11:51;;;;;;;13.50;9.65;;;;;;;15.17;100.00;98557.23;4429318;77;21108;-87
2021/09/17 18:17:53;;;;;;;11.00;6.15;;;;;;;15.09;100.00;98572.90;4436586;77;21116;-87
2021/09/17 18:23:55;;;;;;;9.95;4.80;;;;;;;14.99;100.00;98580.11;4438483;77;21079;-87
2021/09/17 18:29:58;;;;;;;3.55;3.00;;;;;;;14.90;100.00;98588.11;4459564;77;21130;-85
2021/09/17 18:36:01;;;;;;;5.83;3.30;;;;;;;14.81;100.00;98585.67;4456402;78;21153;-88
2021/09/17 18:42:02;;;;;;;7.10;3.85;;;;;;;14.65;100.00;98583.50;4441056;77;21165;-87
2021/09/17 18:48:04;;;;;;;4.55;4.03;;;;;;;14.61;100.00;98589.63;4426402;78;21004;-87
2021/09/17 18:54:06;;;;;;;9.70;3.77;;;;;;;14.60;100.00;98590.03;4450257;77;22563;-87
2021/09/17 19:00:10;;;;;;;8.25;4.92;;;;;;;14.56;100.00;98587.34;4431937;77;21071;-86
2021/09/17 19:06:12;;;;;;;10.05;4.22;;;;;;;14.49;100.00;98593.50;4443871;78;22341;-88
2021/09/17 19:12:14;;;;;;;8.85;5.65;;;;;;;14.47;100.00;98595.91;4449663;77;21028;-86
2021/09/17 19:18:18;;;;;;;10.35;5.70;;;;;;;14.47;100.00;98593.91;4446687;77;21111;-86
2021/09/17 19:24:21;;;;;;;10.32;6.58;;;;;;;14.47;100.00;98598.05;4433443;77;21108;-86
2021/09/17 19:30:23;;;;;;;15.00;6.65;;;;;;;14.46;100.00;98594.33;4443851;77;21067;-86
2021/09/17 19:36:25;;;;;;;14.33;6.80;;;;;;;14.45;100.00;98587.27;4453931;77;21046;-86
2021/09/17 19:42:26;;;;;;;13.72;6.62;;;;;;;14.45;100.00;98590.02;4444297;77;21050;-86
2021/09/17 19:48:29;;;;;;;11.18;6.83;;;;;;;14.46;100.00;98598.45;4439004;77;21111;-87
2021/09/17 19:54:32;;;;;;;9.35;6.67;;;;;;;14.45;100.00;98599.08;4448413;77;21085;-86
2021/09/17 20:00:33;;;;;;;12.85;6.12;;;;;;;14.46;100.00;98601.21;4438684;77;21072;-86
2021/09/17 20:06:35;;;;;;;9.83;5.95;;;;;;;14.46;100.00;98593.74;4440830;77;21064;-86
2021/09/17 20:12:36;;;;;;;10.78;6.80;;;;;;;14.47;100.00;98592.54;4324095;77;10000079;-84
2021/09/17 20:18:38;;;;;;;13.43;6.55;;;;;;;14.42;100.00;98590.84;4440889;78;21562;-86
2021/09/17 20:24:39;;;;;;;14.03;7.33;;;;;;;14.41;100.00;98593.42;4442585;77;21112;-87
2021/09/17 20:30:40;;;;;;;16.57;6.58;;;;;;;14.46;100.00;98591.57;4452189;77;21048;-86
2021/09/17 20:36:44;;;;;;;11.22;7.33;;;;;;;14.46;100.00;98591.57;4453069;77;21083;-86
2021/09/17 20:42:47;;;;;;;13.05;7.50;;;;;;;14.47;100.00;98597.28;4448411;77;21015;-85
2021/09/17 20:48:48;;;;;;;12.53;7.45;;;;;;;14.42;100.00;98598.52;4419228;77;22364;-88
2021/09/17 20:54:50;;;;;;;15.25;7.70;;;;;;;14.36;100.00;98597.38;4456486;77;21003;-88
2021/09/17 21:00:51;;;;;;;13.98;8.05;;;;;;;14.39;100.00;98592.45;4443994;77;22057;-86
2021/09/17 21:06:52;;;;;;;19.35;8.48;;;;;;;14.39;100.00;98589.70;4435584;77;21029;-85
2021/09/17 21:12:54;;;;;;;13.70;9.23;;;;;;;14.38;100.00;98596.97;4440396;77;21075;-85
2021/09/17 21:18:55;;;;;;;15.75;8.38;;;;;;;14.40;100.00;98598.14;4439422;77;21056;-86
2021/09/17 21:24:57;;;;;;;18.20;9.80;;;;;;;14.42;100.00;98603.23;4455261;77;21041;-85
2021/09/17 21:30:58;;;;;;;11.33;8.30;;;;;;;14.46;100.00;98602.00;4436437;78;21597;-86
2021/09/17 21:36:59;;;;;;;13.00;8.83;;;;;;;14.46;100.00;98598.45;4426435;77;21041;-85
2021/09/17 21:43:01;;;;;;;13.35;8.25;;;;;;;14.43;100.00;98597.31;4433127;77;21648;-86
2021/09/17 21:49:03;;;;;;;19.15;9.20;;;;;;;14.44;100.00;98596.11;4448728;77;21542;-85
2021/09/17 21:55:06;;;;;;;13.78;8.88;;;;;;;14.37;100.00;98588.53;4439867;78;21027;-85
2021/09/17 22:01:08;;;;;;;13.13;9.78;;;;;;;14.31;100.00;98584.08;4421082;77;21047;-86
2021/09/17 22:07:09;;;;;;;13.43;8.45;;;;;;;14.28;100.00;98590.98;4450613;77;21068;-86
2021/09/17 22:13:11;;;;;;;14.87;8.73;;;;;;;14.25;100.00;98582.94;4439037;77;21034;-86
2021/09/17 22:19:12;;;;;;;12.10;7.60;;;;;;;14.28;100.00;98580.77;4412776;78;21038;-86
2021/09/17 22:25:14;;;;;;;12.18;8.00;;;;;;;14.25;100.00;98580.18;4368267;79;21074;-86
2021/09/17 22:31:15;;;;;;;17.82;7.33;;;;;;;14.23;100.00;98575.67;4372777;79;21522;-86
2021/09/17 22:37:17;;;;;;;16.87;7.85;;;;;;;14.25;100.00;98580.18;4362238;79;21110;-86
2021/09/17 22:43:18;;;;;;;15.23;6.70;;;;;;;14.28;100.00;98573.89;4369211;79;21037;-86
2021/09/17 22:49:19;;;;;;;16.02;7.03;;;;;;;14.29;100.00;98574.65;4371936;79;21054;-85
2021/09/17 22:55:21;;;;;;;20.45;7.72;;;;;;;14.29;100.00;98574.06;4360915;79;21459;-86
2021/09/17 23:01:22;;;;;;;15.45;8.85;;;;;;;14.26;100.00;98565.83;4352970;80;21057;-86
2021/09/17 23:07:23;;;;;;;20.77;8.33;;;;;;;14.25;100.00;98571.16;4315955;80;21034;-86
2021/09/17 23:13:25;;;;;;;14.40;9.08;;;;;;;14.25;100.00;98567.80;4422276;78;21081;-85
2021/09/17 23:19:26;;;;;;;15.70;8.00;;;;;;;14.23;100.00;98565.24;4357926;80;21092;-86
2021/09/17 23:25:28;;;;;;;14.28;7.55;;;;;;;14.21;100.00;98565.66;4346932;79;20998;-85
2021/09/17 23:31:30;;;;;;;12.93;8.20;;;;;;;14.18;100.00;98568.64;4453408;77;21133;-85
2021/09/17 23:37:31;;;;;;;13.48;8.98;;;;;;;14.13;100.00;98566.33;4457914;77;21070;-85
2021/09/17 23:43:32;;;;;;;23.42;8.80;;;;;;;14.09;100.00;98567.55;4424986;77;21055;-86
2021/09/17 23:49:33;;;;;;;11.75;9.05;;;;;;;14.05;100.00;98566.79;4435842;77;21087;-87
2021/09/17 23:55:34;;;;;;;12.82;8.53;;;;;;;14.02;100.00;98575.28;4376466;79;21070;-85
